San Fernando, Spain
Current Conditions -  °F | °C
As of 1:00 AM on Tuesday 23 Dec 2014 (Local Time) from LERT Reporting Station
Clear Clear  
Wind Chill: 55°   Ceiling: Unl
Heat Index: 55°   Visibility: 6mi
Dew Point: 48°   Wind: 3mph
Humidity: 77%   Direction: 80°E
Pressure: 30.33"   Gusts: NA
Location:  36.48°N, 6.2°W
Report Text: LERT 230000Z 08003KT 050V130 CAVOK 13/09 Q1027 NOSIG
Loading
Personal Weather Stations






























Interactive Weather Map New forecast layout! Learn more

10-Day Weather Forecast

Advertisements
Track Severe Weather on mobile